createdAt,value
2019-04-06T00:01:43.625Z,2.10
2019-04-06T00:04:12.587Z,2.10
2019-04-06T00:06:41.641Z,2.00
2019-04-06T00:09:10.740Z,1.90
2019-04-06T00:11:39.668Z,1.80
2019-04-06T00:14:08.594Z,1.80
2019-04-06T00:16:37.415Z,2.00
2019-04-06T00:19:06.264Z,2.00
2019-04-06T00:21:35.196Z,2.00
2019-04-06T00:24:04.033Z,2.00
2019-04-06T00:26:32.986Z,2.00
2019-04-06T00:29:01.860Z,1.90
2019-04-06T00:31:32.384Z,1.80
2019-04-06T00:34:01.603Z,1.80
2019-04-06T00:36:30.435Z,1.60
2019-04-06T00:38:59.304Z,1.60
2019-04-06T00:41:28.481Z,1.50
2019-04-06T00:43:57.446Z,1.40
2019-04-06T00:46:26.374Z,1.40
2019-04-06T00:48:55.264Z,1.50
2019-04-06T00:51:24.969Z,1.40
2019-04-06T00:53:53.865Z,1.30
2019-04-06T00:56:22.961Z,1.40
2019-04-06T00:58:51.853Z,1.50
2019-04-06T01:01:20.742Z,1.70
2019-04-06T01:03:49.634Z,1.80
2019-04-06T01:06:19.965Z,2.00
2019-04-06T01:08:50.053Z,2.10
2019-04-06T01:11:19.281Z,2.20
2019-04-06T01:13:48.173Z,2.20
2019-04-06T01:16:17.145Z,2.30
2019-04-06T01:18:46.034Z,2.40
2019-04-06T01:21:15.053Z,2.50
2019-04-06T01:23:43.945Z,2.40
2019-04-06T01:26:12.838Z,2.50
2019-04-06T01:28:41.730Z,2.50
2019-04-06T01:31:10.609Z,2.40
2019-04-06T01:33:39.719Z,2.30
2019-04-06T01:36:08.611Z,2.40
2019-04-06T01:38:37.508Z,2.50
2019-04-06T01:41:06.604Z,2.60
2019-04-06T01:43:35.478Z,2.80
2019-04-06T01:46:04.314Z,2.90
2019-04-06T01:48:34.625Z,2.90
2019-04-06T01:51:03.581Z,2.80
2019-04-06T01:53:32.492Z,2.70
2019-04-06T01:56:01.361Z,2.60
2019-04-06T01:58:30.480Z,2.70
2019-04-06T02:01:04.038Z,2.70
2019-04-06T02:03:32.900Z,2.70
2019-04-06T02:06:02.895Z,2.70
2019-04-06T02:08:31.988Z,2.80
2019-04-06T02:11:00.881Z,2.90
2019-04-06T02:13:31.805Z,2.90
2019-04-06T02:16:00.564Z,2.90
2019-04-06T02:18:29.596Z,2.80
2019-04-06T02:20:58.464Z,2.80
2019-04-06T02:23:27.386Z,2.70
2019-04-06T02:25:56.249Z,2.50
2019-04-06T02:28:25.889Z,2.40
2019-04-06T02:31:02.219Z,2.30
2019-04-06T02:33:35.423Z,2.30
2019-04-06T02:36:08.845Z,2.10
2019-04-06T02:38:39.296Z,2.10
2019-04-06T02:41:10.009Z,2.10
2019-04-06T02:43:40.580Z,2.00
2019-04-06T02:46:09.468Z,2.10
2019-04-06T02:48:38.324Z,2.10
2019-04-06T02:51:07.217Z,2.00
2019-04-06T02:53:36.109Z,1.90
2019-04-06T02:56:04.972Z,1.80
2019-04-06T02:58:33.792Z,1.80
2019-04-06T03:01:02.891Z,1.90
2019-04-06T03:03:32.088Z,1.90
2019-04-06T03:06:00.932Z,1.90
2019-04-06T03:08:30.076Z,2.00
2019-04-06T03:10:58.945Z,2.10
2019-04-06T03:13:27.732Z,2.10
2019-04-06T03:15:58.398Z,2.10
2019-04-06T03:18:27.045Z,2.20
2019-04-06T03:20:55.968Z,2.20
2019-04-06T03:23:25.679Z,2.20
2019-04-06T03:25:54.745Z,2.20
2019-04-06T03:28:23.664Z,2.20
2019-04-06T03:30:52.555Z,2.10
2019-04-06T03:33:21.408Z,2.00
2019-04-06T03:35:51.201Z,2.10
2019-04-06T03:38:20.872Z,2.30
2019-04-06T03:40:49.852Z,2.30
2019-04-06T03:43:18.879Z,2.30
2019-04-06T03:45:48.055Z,2.20
2019-04-06T03:48:16.920Z,2.30
2019-04-06T03:50:45.744Z,2.30
2019-04-06T03:53:14.784Z,2.30
2019-04-06T03:55:43.939Z,2.20
2019-04-06T03:58:12.824Z,1.90
2019-04-06T04:00:41.694Z,1.80
2019-04-06T04:03:12.437Z,1.70
2019-04-06T04:05:41.148Z,1.50
2019-04-06T04:08:10.032Z,1.30
2019-04-06T04:10:40.563Z,1.20
2019-04-06T04:13:09.456Z,1.10
2019-04-06T04:15:38.322Z,1.20
2019-04-06T04:18:07.228Z,1.40
2019-04-06T04:20:36.357Z,1.50
2019-04-06T04:23:05.358Z,1.50
2019-04-06T04:25:34.255Z,1.50
2019-04-06T04:28:03.091Z,1.60
2019-04-06T04:30:33.991Z,1.50
2019-04-06T04:33:02.675Z,1.40
2019-04-06T04:35:32.538Z,1.20
2019-04-06T04:38:01.313Z,1.10
2019-04-06T04:40:30.111Z,1.10
2019-04-06T04:42:59.025Z,1.00
2019-04-06T04:45:29.096Z,1.00
2019-04-06T04:47:58.038Z,1.10
2019-04-06T04:50:26.796Z,1.10
2019-04-06T04:52:55.823Z,1.10
2019-04-06T04:55:24.711Z,1.10
2019-04-06T04:57:54.012Z,1.10
2019-04-06T05:00:22.884Z,1.00
2019-04-06T05:02:51.797Z,0.90
2019-04-06T05:05:20.660Z,0.90
2019-04-06T05:07:49.686Z,0.90
2019-04-06T05:10:18.574Z,0.90
2019-04-06T05:12:47.466Z,0.80
2019-04-06T05:15:22.063Z,0.80
2019-04-06T05:17:50.986Z,0.80
2019-04-06T05:20:19.848Z,0.80
2019-04-06T05:22:48.851Z,0.90
2019-04-06T05:25:17.875Z,1.00
2019-04-06T05:27:52.605Z,1.10
2019-04-06T05:30:18.898Z,1.20
2019-04-06T05:32:47.793Z,1.20
2019-04-06T05:35:16.713Z,1.30
2019-04-06T05:37:45.663Z,1.40
2019-04-06T05:40:15.410Z,1.50
2019-04-06T05:42:44.281Z,1.70
2019-04-06T05:45:13.177Z,1.90
2019-04-06T05:47:41.961Z,2.10
2019-04-06T05:50:11.088Z,2.30
2019-04-06T05:52:39.987Z,2.50
2019-04-06T05:55:09.028Z,2.80
2019-04-06T05:57:38.093Z,3.10
2019-04-06T06:00:10.273Z,3.20
2019-04-06T06:02:41.412Z,3.10
2019-04-06T06:05:10.532Z,3.10
2019-04-06T06:07:39.962Z,3.10
2019-04-06T06:10:09.532Z,3.30
2019-04-06T06:12:39.512Z,3.40
2019-04-06T06:15:08.383Z,3.50
2019-04-06T06:17:37.248Z,3.50
2019-04-06T06:20:07.077Z,3.50
2019-04-06T06:22:35.965Z,3.60
2019-04-06T06:25:06.611Z,3.80
2019-04-06T06:27:36.140Z,3.90
2019-04-06T06:30:08.590Z,4.00
2019-04-06T06:32:37.609Z,4.10
2019-04-06T06:35:07.815Z,4.10
2019-04-06T06:37:36.828Z,4.20
2019-04-06T06:40:07.727Z,4.30
2019-04-06T06:42:36.863Z,4.40
2019-04-06T06:45:07.298Z,4.50
2019-04-06T06:47:36.402Z,4.80
2019-04-06T06:50:07.765Z,5.10
2019-04-06T06:52:36.947Z,5.40
2019-04-06T06:55:06.934Z,5.80
2019-04-06T06:57:35.772Z,6.10
2019-04-06T07:00:06.078Z,6.20
2019-04-06T07:02:34.944Z,6.50
2019-04-06T07:05:04.329Z,6.70
2019-04-06T07:07:33.241Z,7.20
2019-04-06T07:10:05.944Z,7.60
2019-04-06T07:12:32.988Z,7.90
2019-04-06T07:15:02.909Z,8.20
2019-04-06T07:17:31.743Z,8.70
2019-04-06T07:20:00.514Z,9.10
2019-04-06T07:22:29.364Z,9.50
2019-04-06T07:24:58.234Z,10.10
2019-04-06T07:27:27.055Z,10.90
2019-04-06T07:29:56.162Z,11.50
2019-04-06T07:32:25.020Z,13.00
2019-04-06T07:34:54.040Z,13.70
2019-04-06T07:37:23.178Z,15.10
2019-04-06T07:39:52.335Z,16.80
2019-04-06T07:42:21.457Z,18.00
2019-04-06T07:49:41.199Z,19.20
2019-04-06T07:52:25.468Z,20.00
2019-04-06T07:54:54.453Z,19.80
2019-04-06T07:57:23.490Z,19.50
2019-04-06T07:59:52.486Z,19.80
2019-04-06T08:02:21.475Z,20.00
2019-04-06T08:04:50.472Z,19.60
2019-04-06T08:07:19.601Z,19.20
2019-04-06T08:09:48.467Z,19.70
2019-04-06T08:12:17.351Z,20.20
2019-04-06T08:14:46.319Z,21.40
2019-04-06T08:17:15.338Z,21.50
2019-04-06T08:19:44.435Z,19.70
2019-04-06T08:22:13.432Z,16.20
2019-04-06T08:24:42.391Z,16.20
2019-04-06T08:27:12.648Z,18.10
2019-04-06T08:29:41.521Z,19.40
2019-04-06T08:32:10.410Z,20.10
2019-04-06T08:34:39.321Z,20.70
2019-04-06T08:37:09.652Z,20.30
2019-04-06T08:39:38.596Z,19.60
2019-04-06T08:42:07.742Z,19.40
2019-04-06T08:44:36.964Z,20.00
2019-04-06T08:47:06.225Z,20.10
2019-04-06T08:49:35.215Z,19.00
2019-04-06T08:52:04.053Z,18.30
2019-04-06T08:54:33.005Z,19.00
2019-04-06T08:57:01.849Z,19.10
2019-04-06T08:59:30.667Z,19.30
2019-04-06T09:02:00.206Z,19.40
2019-04-06T09:04:29.080Z,17.50
2019-04-06T09:06:58.267Z,17.80
2019-04-06T09:09:29.017Z,16.20
2019-04-06T09:11:57.797Z,15.60
2019-04-06T09:14:26.818Z,16.50
2019-04-06T09:16:55.708Z,17.40
2019-04-06T09:19:24.522Z,17.10
2019-04-06T09:21:53.591Z,16.50
2019-04-06T09:24:22.691Z,15.10
2019-04-06T09:26:51.583Z,14.80
2019-04-06T09:29:23.739Z,15.10
2019-04-06T09:31:52.681Z,15.20
2019-04-06T09:34:21.411Z,15.30
2019-04-06T09:36:50.542Z,16.20
2019-04-06T09:39:19.830Z,17.90
2019-04-06T09:41:49.684Z,18.80
2019-04-06T09:44:38.495Z,17.40
2019-04-06T09:47:21.427Z,17.00
2019-04-06T09:50:04.042Z,18.00
2019-04-06T09:52:43.581Z,18.10
2019-04-06T09:55:20.015Z,17.40
2019-04-06T09:58:05.533Z,17.10
2019-04-06T10:00:36.066Z,16.90
2019-04-06T10:03:15.386Z,17.10
2019-04-06T10:05:51.847Z,17.40
2019-04-06T10:08:28.134Z,18.20
2019-04-06T10:11:07.135Z,18.80
2019-04-06T10:13:37.595Z,18.50
2019-04-06T10:16:11.453Z,18.80
2019-04-06T10:18:45.002Z,18.40
2019-04-06T10:21:19.627Z,18.20
2019-04-06T10:23:55.692Z,18.00
2019-04-06T10:26:27.036Z,18.00
2019-04-06T10:28:57.606Z,18.60
2019-04-06T10:31:30.781Z,19.60
2019-04-06T10:34:01.216Z,20.40
2019-04-06T10:36:34.631Z,19.70
2019-04-06T10:39:23.140Z,19.20
2019-04-06T10:41:56.321Z,18.50
2019-04-06T10:44:45.089Z,17.90
2019-04-06T10:47:18.053Z,17.40
2019-04-06T10:49:54.548Z,17.50
2019-04-06T10:52:33.858Z,17.40
2019-04-06T10:55:12.678Z,17.30
2019-04-06T10:58:01.634Z,17.70
2019-04-06T11:00:35.380Z,17.90
2019-04-06T11:03:06.013Z,18.90
2019-04-06T11:05:41.149Z,19.40
2019-04-06T11:08:11.678Z,19.20
2019-04-06T11:10:48.397Z,18.40
2019-04-06T11:13:19.060Z,18.80
2019-04-06T11:15:49.723Z,19.40
2019-04-06T11:18:32.097Z,20.20
2019-04-06T11:21:02.922Z,20.00
2019-04-06T11:23:36.397Z,20.60
2019-04-06T11:26:15.907Z,20.60
2019-04-06T11:28:58.564Z,20.40
2019-04-06T11:31:45.314Z,20.50
2019-04-06T11:34:28.079Z,20.60
2019-04-06T11:37:14.107Z,21.30
2019-04-06T11:40:01.134Z,21.90
2019-04-06T11:42:33.233Z,21.00
2019-04-06T11:45:09.774Z,20.70
2019-04-06T11:47:43.494Z,20.20
2019-04-06T11:50:30.497Z,20.00
2019-04-06T11:53:03.714Z,20.40
2019-04-06T11:55:50.501Z,20.50
2019-04-06T11:58:27.874Z,20.90
2019-04-06T12:01:08.137Z,21.30
2019-04-06T12:03:55.293Z,21.20
2019-04-06T12:06:28.968Z,21.30
2019-04-06T12:09:15.986Z,21.30
2019-04-06T12:12:01.820Z,21.80
2019-04-06T12:14:49.033Z,20.80
2019-04-06T12:17:28.759Z,20.10
2019-04-06T12:20:16.003Z,19.40
2019-04-06T12:23:02.850Z,18.50
2019-04-06T12:25:36.208Z,18.40
2019-04-06T12:28:06.786Z,18.40
2019-04-06T12:30:52.628Z,18.20
2019-04-06T12:33:29.915Z,17.90
2019-04-06T12:36:00.330Z,18.30
2019-04-06T12:38:42.650Z,18.90
2019-04-06T12:41:25.138Z,20.10
2019-04-06T12:44:01.414Z,20.90
2019-04-06T12:46:48.008Z,20.80
2019-04-06T12:49:18.737Z,20.80
2019-04-06T12:51:55.445Z,20.90
2019-04-06T12:54:44.322Z,21.30
2019-04-06T12:57:18.416Z,20.60
2019-04-06T12:59:49.081Z,20.70
2019-04-06T13:02:22.550Z,22.10
2019-04-06T13:04:53.349Z,23.10
2019-04-06T13:07:39.180Z,23.80
2019-04-06T13:10:16.266Z,23.70
2019-04-06T13:13:04.816Z,24.00
2019-04-06T13:15:51.807Z,23.00
2019-04-06T13:18:33.932Z,21.20
2019-04-06T13:21:21.589Z,20.00
2019-04-06T13:24:10.426Z,19.10
2019-04-06T13:26:57.552Z,18.60
2019-04-06T13:29:34.509Z,18.50
2019-04-06T13:32:07.929Z,18.50
2019-04-06T13:34:53.714Z,18.30
2019-04-06T13:37:30.251Z,18.30
2019-04-06T13:40:09.518Z,19.20
2019-04-06T13:42:42.816Z,20.30
2019-04-06T13:45:22.494Z,21.70
2019-04-06T13:47:54.441Z,21.70
2019-04-06T13:50:27.716Z,21.70
2019-04-06T13:53:22.355Z,21.70
2019-04-06T13:55:54.147Z,21.00
2019-04-06T13:58:31.006Z,19.80
2019-04-06T14:01:14.435Z,20.10
2019-04-06T14:03:45.630Z,21.30
2019-04-06T14:06:31.394Z,22.20
2019-04-06T14:09:02.022Z,21.90
2019-04-06T14:11:35.654Z,21.00
2019-04-06T14:14:15.173Z,21.10
2019-04-06T14:16:48.186Z,20.80
2019-04-06T14:19:24.431Z,20.40
2019-04-06T14:21:57.719Z,20.60
2019-04-06T14:24:44.760Z,21.20
2019-04-06T14:27:18.389Z,21.30
2019-04-06T14:30:05.262Z,20.50
2019-04-06T14:32:35.807Z,19.60
2019-04-06T14:35:20.288Z,19.20
2019-04-06T14:37:57.137Z,18.90
2019-04-06T14:40:43.539Z,18.40
2019-04-06T14:43:30.653Z,18.40
2019-04-06T14:46:19.118Z,19.00
2019-04-06T14:49:10.283Z,19.20
2019-04-06T14:51:33.366Z,19.20
2019-04-06T14:54:10.181Z,19.70
2019-04-06T14:56:57.193Z,20.40
2019-04-06T14:59:31.275Z,21.00
2019-04-06T15:02:09.610Z,21.30
2019-04-06T15:04:40.142Z,21.10
2019-04-06T15:07:16.609Z,21.10
2019-04-06T15:09:50.760Z,21.20
2019-04-06T15:12:38.152Z,21.30
2019-04-06T15:15:09.487Z,20.80
2019-04-06T15:17:40.131Z,20.80
2019-04-06T15:20:17.012Z,21.00
2019-04-06T15:22:56.963Z,20.80
2019-04-06T15:25:28.923Z,20.40
2019-04-06T15:27:59.797Z,20.20
2019-04-06T15:30:37.500Z,20.10
2019-04-06T15:33:24.388Z,19.80
2019-04-06T15:36:03.920Z,19.40
2019-04-06T15:38:49.635Z,20.00
2019-04-06T15:41:23.381Z,20.20
2019-04-06T15:44:02.002Z,20.50
2019-04-06T15:46:32.853Z,20.50
2019-04-06T15:49:12.420Z,20.00
2019-04-06T15:51:55.227Z,20.00
2019-04-06T15:54:25.964Z,20.10
2019-04-06T15:56:56.507Z,19.70
2019-04-06T15:59:36.036Z,19.20
2019-04-06T16:02:18.649Z,19.00
2019-04-06T16:04:49.530Z,18.80
2019-04-06T16:07:35.275Z,18.70
2019-04-06T16:10:15.650Z,18.80
2019-04-06T16:13:02.960Z,18.80
2019-04-06T16:15:36.155Z,18.90
2019-04-06T16:18:18.972Z,18.90
2019-04-06T16:20:58.280Z,19.20
2019-04-06T16:23:28.554Z,19.20
2019-04-06T16:26:08.423Z,19.00
2019-04-06T16:28:41.884Z,18.80
2019-04-06T16:31:12.528Z,18.90
2019-04-06T16:33:43.476Z,18.80
2019-04-06T16:36:31.109Z,18.70
2019-04-06T16:39:15.543Z,18.50
2019-04-06T16:41:49.146Z,18.40
2019-04-06T16:44:22.748Z,18.20
2019-04-06T16:46:53.483Z,18.00
2019-04-06T16:49:24.216Z,17.80
2019-04-06T16:52:11.337Z,17.70
2019-04-06T16:54:58.458Z,17.50
2019-04-06T16:57:42.610Z,17.40
2019-04-06T17:00:20.796Z,17.20
2019-04-06T17:02:53.501Z,17.10
2019-04-06T17:05:33.974Z,17.00
2019-04-06T17:08:16.687Z,17.00
2019-04-06T17:11:02.430Z,16.90
2019-04-06T17:13:45.396Z,16.90
2019-04-06T17:16:34.042Z,16.80
2019-04-06T17:19:17.170Z,16.70
2019-04-06T17:21:47.903Z,16.60
2019-04-06T17:24:18.639Z,16.40
2019-04-06T17:26:52.242Z,16.30
2019-04-06T17:29:25.847Z,16.30
2019-04-06T17:31:59.651Z,16.30
2019-04-06T17:34:53.102Z,16.30
2019-04-06T17:37:15.501Z,16.20
2019-04-06T17:39:56.433Z,16.20
2019-04-06T17:42:27.743Z,16.00
2019-04-06T17:45:11.454Z,15.80
2019-04-06T17:47:42.363Z,15.70
2019-04-06T17:50:23.546Z,15.60
2019-04-06T17:53:01.237Z,15.40
2019-04-06T17:55:38.018Z,15.20
2019-04-06T17:58:20.835Z,15.10
2019-04-06T18:01:00.586Z,14.80
2019-04-06T18:03:43.972Z,14.70
2019-04-06T18:06:30.722Z,14.50
2019-04-06T18:09:06.328Z,14.50
2019-04-06T18:11:40.157Z,14.40
2019-04-06T18:14:09.588Z,14.30
2019-04-06T18:16:38.889Z,14.40
2019-04-06T18:19:08.249Z,14.20
2019-04-06T18:21:39.149Z,14.20
2019-04-06T18:24:08.354Z,14.20
2019-04-06T18:26:37.423Z,14.10
2019-04-06T18:29:07.120Z,14.10
2019-04-06T18:31:38.079Z,13.90
2019-04-06T18:34:08.515Z,13.80
2019-04-06T18:36:55.931Z,13.60
2019-04-06T18:39:26.872Z,13.40
2019-04-06T18:41:56.355Z,13.30
2019-04-06T18:44:25.679Z,13.20
2019-04-06T18:46:55.042Z,13.00
2019-04-06T18:49:24.966Z,12.80
2019-04-06T18:51:54.404Z,12.70
2019-04-06T18:54:24.710Z,12.70
2019-04-06T18:56:54.032Z,12.70
2019-04-06T18:59:23.338Z,12.70
2019-04-06T19:01:52.485Z,12.60
2019-04-06T19:04:21.735Z,12.40
2019-04-06T19:06:51.057Z,12.30
2019-04-06T19:09:23.691Z,12.30
2019-04-06T19:11:55.624Z,12.20
2019-04-06T19:14:22.528Z,12.20
2019-04-06T19:16:51.921Z,12.20
2019-04-06T19:19:21.563Z,12.20
2019-04-06T19:21:50.834Z,12.20
2019-04-06T19:24:20.276Z,12.30
2019-04-06T19:26:49.644Z,12.30
2019-04-06T19:29:18.992Z,12.50
2019-04-06T19:31:48.452Z,12.50
2019-04-06T19:34:17.757Z,12.40
2019-04-06T19:36:47.056Z,12.30
2019-04-06T19:39:16.354Z,12.30
2019-04-06T19:41:46.109Z,12.40
2019-04-06T19:44:15.899Z,12.30
2019-04-06T19:46:45.488Z,12.20
2019-04-06T19:49:14.585Z,11.90
2019-04-06T19:51:44.164Z,11.60
2019-04-06T19:54:13.762Z,11.50
2019-04-06T19:56:43.107Z,11.30
2019-04-06T19:59:13.560Z,11.10
2019-04-06T20:01:43.025Z,11.00
2019-04-06T20:04:12.241Z,11.00
2019-04-06T20:06:42.074Z,10.90
2019-04-06T20:09:11.705Z,11.00
2019-04-06T20:11:41.123Z,11.10
2019-04-06T20:14:10.797Z,11.00
2019-04-06T20:16:40.084Z,10.90
2019-04-06T20:19:09.890Z,10.90
2019-04-06T20:21:39.725Z,10.70
2019-04-06T20:24:09.549Z,10.60
2019-04-06T20:26:39.883Z,10.70
2019-04-06T20:29:09.247Z,10.80
2019-04-06T20:31:39.643Z,11.00
2019-04-06T20:34:10.838Z,11.30
2019-04-06T20:36:40.804Z,11.40
2019-04-06T20:39:12.645Z,11.30
2019-04-06T20:41:42.673Z,11.10
2019-04-06T20:44:12.230Z,11.00
2019-04-06T20:46:41.320Z,11.00
2019-04-06T20:49:10.816Z,10.90
2019-04-06T20:51:40.129Z,10.90
2019-04-06T20:54:09.231Z,10.80
2019-04-06T20:56:38.427Z,10.90
2019-04-06T20:59:07.584Z,11.10
2019-04-06T21:01:37.127Z,11.10
2019-04-06T21:04:06.175Z,11.00
2019-04-06T21:06:35.083Z,11.00
2019-04-06T21:09:07.395Z,11.10
2019-04-06T21:11:36.688Z,11.10
2019-04-06T21:14:05.699Z,11.00
2019-04-06T21:16:34.666Z,10.90
2019-04-06T21:19:03.730Z,11.10
2019-04-06T21:21:33.699Z,11.00
2019-04-06T21:24:02.938Z,10.90
2019-04-06T21:26:31.815Z,10.80
2019-04-06T21:29:00.663Z,10.90
2019-04-06T21:31:29.774Z,10.80
2019-04-06T21:34:09.688Z,10.80
2019-04-06T21:36:29.881Z,10.70
2019-04-06T21:38:58.907Z,10.70
2019-04-06T21:41:28.995Z,10.60
2019-04-06T21:43:58.124Z,10.50
2019-04-06T21:46:26.998Z,10.40
2019-04-06T21:48:55.911Z,10.20
2019-04-06T21:51:24.901Z,10.10
2019-04-06T21:53:53.897Z,10.10
2019-04-06T21:56:22.685Z,9.90
2019-04-06T21:58:51.701Z,9.80
2019-04-06T22:01:22.108Z,9.80
2019-04-06T22:03:51.633Z,9.80
2019-04-06T22:06:24.264Z,9.90
2019-04-06T22:08:52.242Z,9.90
2019-04-06T22:11:21.969Z,9.90
2019-04-06T22:13:51.259Z,10.00
2019-04-06T22:16:20.588Z,9.90
2019-04-06T22:18:49.815Z,10.00
2019-04-06T22:21:19.695Z,10.00
2019-04-06T22:23:48.691Z,10.00
2019-04-06T22:26:18.243Z,9.90
2019-04-06T22:28:48.028Z,9.60
2019-04-06T22:31:17.668Z,9.50
2019-04-06T22:33:46.815Z,9.30
2019-04-06T22:36:17.701Z,9.10
2019-04-06T22:38:46.250Z,9.00
2019-04-06T22:41:15.336Z,8.90
2019-04-06T22:43:44.587Z,8.70
2019-04-06T22:46:13.569Z,8.50
2019-04-06T22:48:42.655Z,8.40
2019-04-06T22:51:11.525Z,8.30
2019-04-06T22:53:40.892Z,8.10
2019-04-06T22:56:10.040Z,8.10
2019-04-06T22:58:38.913Z,8.00
2019-04-06T23:01:09.316Z,8.00
2019-04-06T23:03:42.633Z,7.90
2019-04-06T23:06:13.164Z,7.90
2019-04-06T23:08:42.318Z,8.00
2019-04-06T23:11:11.667Z,8.00
2019-04-06T23:13:40.862Z,8.00
2019-04-06T23:16:10.303Z,8.10
2019-04-06T23:18:39.946Z,8.10
2019-04-06T23:21:08.944Z,8.30
2019-04-06T23:23:37.825Z,8.40
2019-04-06T23:26:06.759Z,8.40
2019-04-06T23:28:35.650Z,8.50
2019-04-06T23:31:05.054Z,8.30
2019-04-06T23:33:34.562Z,8.10
2019-04-06T23:36:03.541Z,8.10
2019-04-06T23:38:32.736Z,8.00
2019-04-06T23:41:02.419Z,7.90
2019-04-06T23:43:31.420Z,7.90
2019-04-06T23:46:00.694Z,7.90
2019-04-06T23:48:31.624Z,7.90
2019-04-06T23:51:00.387Z,7.90
2019-04-06T23:53:29.394Z,8.00
2019-04-06T23:55:58.669Z,8.10
2019-04-06T23:58:28.063Z,8.20
